sensor_id;sensor_type;location;lat;lon;timestamp;P1;durP1;ratioP1;P2;durP2;ratioP2
26486;SDS011;14425;56.136;40.360;2022-09-29T00:01:52;4.53;;;3.30;;
26486;SDS011;14425;56.136;40.360;2022-09-29T00:04:18;2.97;;;2.42;;
26486;SDS011;14425;56.136;40.360;2022-09-29T00:06:44;5.55;;;3.65;;
26486;SDS011;14425;56.136;40.360;2022-09-29T00:09:09;5.57;;;3.25;;
26486;SDS011;14425;56.136;40.360;2022-09-29T00:11:35;3.25;;;2.47;;
26486;SDS011;14425;56.136;40.360;2022-09-29T00:14:00;6.30;;;4.00;;
26486;SDS011;14425;56.136;40.360;2022-09-29T00:16:26;5.40;;;3.42;;
26486;SDS011;14425;56.136;40.360;2022-09-29T00:18:55;4.78;;;3.22;;
26486;SDS011;14425;56.136;40.360;2022-09-29T00:21:21;4.55;;;3.30;;
26486;SDS011;14425;56.136;40.360;2022-09-29T00:23:47;3.28;;;2.40;;
26486;SDS011;14425;56.136;40.360;2022-09-29T00:26:15;4.30;;;2.85;;
26486;SDS011;14425;56.136;40.360;2022-09-29T00:28:48;4.78;;;3.30;;
26486;SDS011;14425;56.136;40.360;2022-09-29T00:31:17;4.10;;;3.17;;
26486;SDS011;14425;56.136;40.360;2022-09-29T00:33:43;6.85;;;4.15;;
26486;SDS011;14425;56.136;40.360;2022-09-29T00:36:09;5.32;;;3.53;;
26486;SDS011;14425;56.136;40.360;2022-09-29T00:38:36;5.60;;;3.42;;
26486;SDS011;14425;56.136;40.360;2022-09-29T00:41:03;11.13;;;3.83;;
26486;SDS011;14425;56.136;40.360;2022-09-29T00:46:41;5.85;;;3.67;;
26486;SDS011;14425;56.136;40.360;2022-09-29T00:51:39;6.32;;;3.38;;
26486;SDS011;14425;56.136;40.360;2022-09-29T00:54:09;4.13;;;3.00;;
26486;SDS011;14425;56.136;40.360;2022-09-29T00:56:35;4.15;;;3.40;;
26486;SDS011;14425;56.136;40.360;2022-09-29T00:59:06;7.32;;;3.67;;
26486;SDS011;14425;56.136;40.360;2022-09-29T01:01:36;3.85;;;3.03;;
26486;SDS011;14425;56.136;40.360;2022-09-29T01:04:03;4.93;;;3.63;;
26486;SDS011;14425;56.136;40.360;2022-09-29T01:06:34;4.10;;;3.07;;
26486;SDS011;14425;56.136;40.360;2022-09-29T01:09:04;5.45;;;3.63;;
26486;SDS011;14425;56.136;40.360;2022-09-29T01:11:33;3.67;;;3.33;;
26486;SDS011;14425;56.136;40.360;2022-09-29T01:13:59;7.38;;;4.20;;
26486;SDS011;14425;56.136;40.360;2022-09-29T01:16:32;3.63;;;3.10;;
26486;SDS011;14425;56.136;40.360;2022-09-29T01:18:59;10.30;;;3.30;;
26486;SDS011;14425;56.136;40.360;2022-09-29T01:30:00;7.53;;;4.68;;
26486;SDS011;14425;56.136;40.360;2022-09-29T01:32:32;9.68;;;5.10;;
26486;SDS011;14425;56.136;40.360;2022-09-29T01:35:22;5.70;;;4.10;;
26486;SDS011;14425;56.136;40.360;2022-09-29T01:37:53;9.82;;;4.80;;
26486;SDS011;14425;56.136;40.360;2022-09-29T01:40:47;7.25;;;4.80;;
26486;SDS011;14425;56.136;40.360;2022-09-29T01:43:27;4.65;;;2.88;;
26486;SDS011;14425;56.136;40.360;2022-09-29T01:46:01;4.53;;;3.50;;
26486;SDS011;14425;56.136;40.360;2022-09-29T01:48:35;5.93;;;4.43;;
26486;SDS011;14425;56.136;40.360;2022-09-29T01:51:06;7.45;;;4.40;;
26486;SDS011;14425;56.136;40.360;2022-09-29T01:53:39;5.22;;;3.92;;
26486;SDS011;14425;56.136;40.360;2022-09-29T01:56:19;6.28;;;4.55;;
26486;SDS011;14425;56.136;40.360;2022-09-29T02:04:04;8.48;;;5.07;;
26486;SDS011;14425;56.136;40.360;2022-09-29T02:06:36;6.93;;;4.45;;
26486;SDS011;14425;56.136;40.360;2022-09-29T02:09:11;14.93;;;6.47;;
26486;SDS011;14425;56.136;40.360;2022-09-29T02:11:43;7.57;;;4.32;;
26486;SDS011;14425;56.136;40.360;2022-09-29T02:14:11;6.50;;;4.38;;
26486;SDS011;14425;56.136;40.360;2022-09-29T02:16:44;7.57;;;5.03;;
26486;SDS011;14425;56.136;40.360;2022-09-29T02:19:25;10.38;;;5.85;;
26486;SDS011;14425;56.136;40.360;2022-09-29T02:21:53;11.02;;;7.13;;
26486;SDS011;14425;56.136;40.360;2022-09-29T02:24:20;19.20;;;9.07;;
26486;SDS011;14425;56.136;40.360;2022-09-29T02:26:47;8.48;;;5.85;;
26486;SDS011;14425;56.136;40.360;2022-09-29T02:29:12;6.18;;;4.57;;
26486;SDS011;14425;56.136;40.360;2022-09-29T02:31:39;12.40;;;7.28;;
26486;SDS011;14425;56.136;40.360;2022-09-29T02:34:07;10.70;;;5.97;;
26486;SDS011;14425;56.136;40.360;2022-09-29T02:36:44;7.97;;;5.43;;
26486;SDS011;14425;56.136;40.360;2022-09-29T02:39:31;13.55;;;6.72;;
26486;SDS011;14425;56.136;40.360;2022-09-29T03:01:18;9.70;;;6.57;;
26486;SDS011;14425;56.136;40.360;2022-09-29T03:03:44;14.13;;;8.35;;
26486;SDS011;14425;56.136;40.360;2022-09-29T03:06:10;17.85;;;8.13;;
26486;SDS011;14425;56.136;40.360;2022-09-29T03:08:37;13.65;;;7.63;;
26486;SDS011;14425;56.136;40.360;2022-09-29T03:11:02;10.35;;;6.80;;
26486;SDS011;14425;56.136;40.360;2022-09-29T03:13:28;9.75;;;6.60;;
26486;SDS011;14425;56.136;40.360;2022-09-29T03:15:53;9.38;;;5.93;;
26486;SDS011;14425;56.136;40.360;2022-09-29T03:18:19;17.00;;;8.50;;
26486;SDS011;14425;56.136;40.360;2022-09-29T03:20:46;10.00;;;5.80;;
26486;SDS011;14425;56.136;40.360;2022-09-29T03:23:12;12.02;;;6.93;;
26486;SDS011;14425;56.136;40.360;2022-09-29T03:25:37;8.80;;;5.97;;
26486;SDS011;14425;56.136;40.360;2022-09-29T03:28:03;19.67;;;8.25;;
26486;SDS011;14425;56.136;40.360;2022-09-29T03:30:28;15.70;;;9.23;;
26486;SDS011;14425;56.136;40.360;2022-09-29T03:32:54;10.23;;;7.13;;
26486;SDS011;14425;56.136;40.360;2022-09-29T03:35:19;13.27;;;6.90;;
26486;SDS011;14425;56.136;40.360;2022-09-29T03:37:45;9.48;;;6.53;;
26486;SDS011;14425;56.136;40.360;2022-09-29T03:40:10;12.00;;;7.05;;
26486;SDS011;14425;56.136;40.360;2022-09-29T03:42:36;10.95;;;7.10;;
26486;SDS011;14425;56.136;40.360;2022-09-29T03:45:02;11.93;;;7.47;;
26486;SDS011;14425;56.136;40.360;2022-09-29T03:47:29;14.73;;;7.18;;
26486;SDS011;14425;56.136;40.360;2022-09-29T03:49:54;9.95;;;6.40;;
26486;SDS011;14425;56.136;40.360;2022-09-29T03:52:20;13.82;;;7.28;;
26486;SDS011;14425;56.136;40.360;2022-09-29T03:54:45;11.15;;;6.65;;
26486;SDS011;14425;56.136;40.360;2022-09-29T03:57:11;16.23;;;9.77;;
26486;SDS011;14425;56.136;40.360;2022-09-29T03:59:36;17.17;;;7.72;;
26486;SDS011;14425;56.136;40.360;2022-09-29T04:02:02;18.15;;;9.85;;
26486;SDS011;14425;56.136;40.360;2022-09-29T04:04:28;14.90;;;8.65;;
26486;SDS011;14425;56.136;40.360;2022-09-29T04:06:53;9.32;;;6.80;;
26486;SDS011;14425;56.136;40.360;2022-09-29T04:09:19;12.23;;;7.28;;
26486;SDS011;14425;56.136;40.360;2022-09-29T04:11:44;11.20;;;7.00;;
26486;SDS011;14425;56.136;40.360;2022-09-29T04:14:10;11.80;;;6.93;;
26486;SDS011;14425;56.136;40.360;2022-09-29T04:16:35;10.55;;;6.85;;
26486;SDS011;14425;56.136;40.360;2022-09-29T04:19:00;13.00;;;6.63;;
26486;SDS011;14425;56.136;40.360;2022-09-29T04:21:26;13.48;;;8.23;;
26486;SDS011;14425;56.136;40.360;2022-09-29T04:23:52;17.33;;;8.93;;
26486;SDS011;14425;56.136;40.360;2022-09-29T04:26:17;18.95;;;9.43;;
26486;SDS011;14425;56.136;40.360;2022-09-29T04:28:44;12.23;;;7.07;;
26486;SDS011;14425;56.136;40.360;2022-09-29T04:31:10;13.43;;;7.70;;
26486;SDS011;14425;56.136;40.360;2022-09-29T04:33:36;17.08;;;8.43;;
26486;SDS011;14425;56.136;40.360;2022-09-29T04:36:03;11.57;;;8.15;;
26486;SDS011;14425;56.136;40.360;2022-09-29T04:38:29;12.18;;;8.32;;
26486;SDS011;14425;56.136;40.360;2022-09-29T04:40:55;13.63;;;7.22;;
26486;SDS011;14425;56.136;40.360;2022-09-29T04:43:21;15.68;;;8.10;;
26486;SDS011;14425;56.136;40.360;2022-09-29T04:45:47;16.17;;;7.78;;
26486;SDS011;14425;56.136;40.360;2022-09-29T04:48:12;10.75;;;6.55;;
26486;SDS011;14425;56.136;40.360;2022-09-29T04:50:38;9.75;;;7.05;;
26486;SDS011;14425;56.136;40.360;2022-09-29T04:53:03;20.58;;;9.57;;
26486;SDS011;14425;56.136;40.360;2022-09-29T04:55:29;17.75;;;7.65;;
26486;SDS011;14425;56.136;40.360;2022-09-29T04:57:54;16.13;;;9.48;;
26486;SDS011;14425;56.136;40.360;2022-09-29T05:00:20;14.43;;;8.45;;
26486;SDS011;14425;56.136;40.360;2022-09-29T05:02:45;12.95;;;6.43;;
26486;SDS011;14425;56.136;40.360;2022-09-29T05:05:11;10.57;;;7.13;;
26486;SDS011;14425;56.136;40.360;2022-09-29T05:07:37;14.95;;;6.90;;
26486;SDS011;14425;56.136;40.360;2022-09-29T05:10:04;14.88;;;7.35;;
26486;SDS011;14425;56.136;40.360;2022-09-29T05:12:31;14.48;;;7.43;;
26486;SDS011;14425;56.136;40.360;2022-09-29T05:14:56;11.48;;;7.20;;
26486;SDS011;14425;56.136;40.360;2022-09-29T05:17:22;14.45;;;8.70;;
26486;SDS011;14425;56.136;40.360;2022-09-29T05:19:47;12.25;;;7.28;;
26486;SDS011;14425;56.136;40.360;2022-09-29T05:22:13;12.93;;;8.50;;
26486;SDS011;14425;56.136;40.360;2022-09-29T05:24:38;22.48;;;9.15;;
26486;SDS011;14425;56.136;40.360;2022-09-29T05:27:04;12.82;;;7.85;;
26486;SDS011;14425;56.136;40.360;2022-09-29T05:29:29;15.40;;;9.45;;
26486;SDS011;14425;56.136;40.360;2022-09-29T05:31:55;14.40;;;9.25;;
26486;SDS011;14425;56.136;40.360;2022-09-29T05:34:20;11.57;;;7.70;;
26486;SDS011;14425;56.136;40.360;2022-09-29T05:36:46;15.73;;;6.65;;
26486;SDS011;14425;56.136;40.360;2022-09-29T05:39:11;9.05;;;7.07;;
26486;SDS011;14425;56.136;40.360;2022-09-29T05:41:37;15.20;;;9.25;;
26486;SDS011;14425;56.136;40.360;2022-09-29T05:44:03;12.55;;;7.80;;
26486;SDS011;14425;56.136;40.360;2022-09-29T05:46:29;14.40;;;8.13;;
26486;SDS011;14425;56.136;40.360;2022-09-29T05:48:54;12.45;;;8.35;;
26486;SDS011;14425;56.136;40.360;2022-09-29T05:51:22;12.85;;;8.43;;
26486;SDS011;14425;56.136;40.360;2022-09-29T05:53:50;10.98;;;6.22;;
26486;SDS011;14425;56.136;40.360;2022-09-29T05:56:18;11.23;;;6.50;;
26486;SDS011;14425;56.136;40.360;2022-09-29T06:01:15;10.90;;;8.27;;
26486;SDS011;14425;56.136;40.360;2022-09-29T06:03:45;15.65;;;11.13;;
26486;SDS011;14425;56.136;40.360;2022-09-29T06:06:12;14.23;;;7.13;;
26486;SDS011;14425;56.136;40.360;2022-09-29T06:08:43;18.70;;;9.45;;
26486;SDS011;14425;56.136;40.360;2022-09-29T06:11:11;15.48;;;11.40;;
26486;SDS011;14425;56.136;40.360;2022-09-29T06:13:40;12.50;;;8.43;;
26486;SDS011;14425;56.136;40.360;2022-09-29T06:16:07;21.52;;;11.98;;
26486;SDS011;14425;56.136;40.360;2022-09-29T06:18:33;13.10;;;8.10;;
26486;SDS011;14425;56.136;40.360;2022-09-29T06:21:00;13.93;;;8.65;;
26486;SDS011;14425;56.136;40.360;2022-09-29T06:23:30;15.27;;;9.20;;
26486;SDS011;14425;56.136;40.360;2022-09-29T06:25:59;12.75;;;7.97;;
26486;SDS011;14425;56.136;40.360;2022-09-29T06:28:26;13.85;;;8.13;;
26486;SDS011;14425;56.136;40.360;2022-09-29T06:30:57;16.38;;;8.48;;
26486;SDS011;14425;56.136;40.360;2022-09-29T06:33:29;12.98;;;8.75;;
26486;SDS011;14425;56.136;40.360;2022-09-29T06:35:56;15.75;;;8.75;;
26486;SDS011;14425;56.136;40.360;2022-09-29T06:38:41;16.95;;;8.88;;
26486;SDS011;14425;56.136;40.360;2022-09-29T06:41:07;8.02;;;6.68;;
26486;SDS011;14425;56.136;40.360;2022-09-29T06:43:33;14.95;;;6.10;;
26486;SDS011;14425;56.136;40.360;2022-09-29T06:45:59;11.00;;;8.23;;
26486;SDS011;14425;56.136;40.360;2022-09-29T06:48:25;9.90;;;7.25;;
26486;SDS011;14425;56.136;40.360;2022-09-29T06:50:51;8.43;;;5.95;;
26486;SDS011;14425;56.136;40.360;2022-09-29T06:53:17;11.90;;;7.07;;
26486;SDS011;14425;56.136;40.360;2022-09-29T06:55:42;6.80;;;5.43;;
26486;SDS011;14425;56.136;40.360;2022-09-29T06:58:08;8.75;;;5.60;;
26486;SDS011;14425;56.136;40.360;2022-09-29T07:00:33;9.70;;;6.57;;
26486;SDS011;14425;56.136;40.360;2022-09-29T07:02:59;8.38;;;4.47;;
26486;SDS011;14425;56.136;40.360;2022-09-29T07:05:25;7.03;;;4.53;;
26486;SDS011;14425;56.136;40.360;2022-09-29T07:07:50;6.35;;;5.25;;
26486;SDS011;14425;56.136;40.360;2022-09-29T07:10:16;6.15;;;5.50;;
26486;SDS011;14425;56.136;40.360;2022-09-29T07:12:41;6.00;;;4.95;;
26486;SDS011;14425;56.136;40.360;2022-09-29T07:15:11;6.05;;;4.82;;
26486;SDS011;14425;56.136;40.360;2022-09-29T07:17:37;5.75;;;4.57;;
26486;SDS011;14425;56.136;40.360;2022-09-29T07:20:02;4.07;;;3.65;;
26486;SDS011;14425;56.136;40.360;2022-09-29T07:22:29;5.32;;;4.13;;
26486;SDS011;14425;56.136;40.360;2022-09-29T07:24:54;5.40;;;4.40;;
26486;SDS011;14425;56.136;40.360;2022-09-29T07:27:20;6.25;;;4.13;;
26486;SDS011;14425;56.136;40.360;2022-09-29T07:29:51;6.78;;;3.95;;
26486;SDS011;14425;56.136;40.360;2022-09-29T07:32:16;4.30;;;3.90;;
26486;SDS011;14425;56.136;40.360;2022-09-29T07:34:42;5.28;;;3.78;;
26486;SDS011;14425;56.136;40.360;2022-09-29T07:37:08;5.72;;;4.50;;
26486;SDS011;14425;56.136;40.360;2022-09-29T07:39:34;4.60;;;4.13;;
26486;SDS011;14425;56.136;40.360;2022-09-29T07:41:59;11.30;;;6.13;;
26486;SDS011;14425;56.136;40.360;2022-09-29T07:44:25;7.18;;;4.32;;
26486;SDS011;14425;56.136;40.360;2022-09-29T07:46:50;4.38;;;3.72;;
26486;SDS011;14425;56.136;40.360;2022-09-29T07:49:16;7.00;;;3.95;;
26486;SDS011;14425;56.136;40.360;2022-09-29T07:51:42;4.15;;;3.53;;
26486;SDS011;14425;56.136;40.360;2022-09-29T07:54:07;4.75;;;3.70;;
26486;SDS011;14425;56.136;40.360;2022-09-29T07:56:33;3.53;;;2.80;;
26486;SDS011;14425;56.136;40.360;2022-09-29T07:58:59;3.58;;;3.08;;
26486;SDS011;14425;56.136;40.360;2022-09-29T08:01:26;4.13;;;3.00;;
26486;SDS011;14425;56.136;40.360;2022-09-29T08:03:53;4.70;;;3.35;;
26486;SDS011;14425;56.136;40.360;2022-09-29T08:06:20;3.58;;;3.22;;
26486;SDS011;14425;56.136;40.360;2022-09-29T08:08:47;6.18;;;4.88;;
26486;SDS011;14425;56.136;40.360;2022-09-29T08:11:13;4.00;;;3.25;;
26486;SDS011;14425;56.136;40.360;2022-09-29T08:13:40;4.43;;;3.53;;
26486;SDS011;14425;56.136;40.360;2022-09-29T08:16:07;3.45;;;2.85;;
26486;SDS011;14425;56.136;40.360;2022-09-29T08:18:35;3.58;;;3.10;;
26486;SDS011;14425;56.136;40.360;2022-09-29T08:21:02;4.85;;;2.83;;
26486;SDS011;14425;56.136;40.360;2022-09-29T08:23:29;5.47;;;4.28;;
26486;SDS011;14425;56.136;40.360;2022-09-29T08:25:59;3.85;;;3.45;;
26486;SDS011;14425;56.136;40.360;2022-09-29T08:28:31;3.10;;;2.83;;
26486;SDS011;14425;56.136;40.360;2022-09-29T08:31:02;3.92;;;3.45;;
26486;SDS011;14425;56.136;40.360;2022-09-29T08:33:29;4.97;;;4.38;;
26486;SDS011;14425;56.136;40.360;2022-09-29T08:35:58;8.45;;;4.90;;
26486;SDS011;14425;56.136;40.360;2022-09-29T08:38:24;4.07;;;3.20;;
26486;SDS011;14425;56.136;40.360;2022-09-29T08:40:51;7.72;;;4.32;;
26486;SDS011;14425;56.136;40.360;2022-09-29T08:43:36;5.05;;;3.65;;
26486;SDS011;14425;56.136;40.360;2022-09-29T08:46:06;4.35;;;2.92;;
26486;SDS011;14425;56.136;40.360;2022-09-29T08:48:40;4.38;;;3.65;;
26486;SDS011;14425;56.136;40.360;2022-09-29T08:51:28;4.78;;;2.67;;
26486;SDS011;14425;56.136;40.360;2022-09-29T08:53:59;4.22;;;3.25;;
26486;SDS011;14425;56.136;40.360;2022-09-29T08:56:33;4.65;;;4.25;;
26486;SDS011;14425;56.136;40.360;2022-09-29T08:58:59;3.35;;;2.58;;
26486;SDS011;14425;56.136;40.360;2022-09-29T09:01:29;3.90;;;2.72;;
26486;SDS011;14425;56.136;40.360;2022-09-29T09:07:10;4.25;;;3.10;;
26486;SDS011;14425;56.136;40.360;2022-09-29T09:15:22;5.00;;;3.55;;
26486;SDS011;14425;56.136;40.360;2022-09-29T09:20:55;6.32;;;4.20;;
26486;SDS011;14425;56.136;40.360;2022-09-29T09:23:55;4.22;;;3.70;;
26486;SDS011;14425;56.136;40.360;2022-09-29T09:26:32;4.43;;;3.80;;
26486;SDS011;14425;56.136;40.360;2022-09-29T09:29:36;5.50;;;4.18;;
26486;SDS011;14425;56.136;40.360;2022-09-29T09:31:59;4.05;;;3.28;;
26486;SDS011;14425;56.136;40.360;2022-09-29T09:37:14;3.00;;;2.30;;
26486;SDS011;14425;56.136;40.360;2022-09-29T09:42:47;4.72;;;3.13;;
26486;SDS011;14425;56.136;40.360;2022-09-29T09:48:00;8.20;;;2.43;;
26486;SDS011;14425;56.136;40.360;2022-09-29T09:50:33;2.97;;;2.22;;
26486;SDS011;14425;56.136;40.360;2022-09-29T09:53:04;2.72;;;2.38;;
26486;SDS011;14425;56.136;40.360;2022-09-29T09:55:36;3.55;;;2.40;;
26486;SDS011;14425;56.136;40.360;2022-09-29T10:00:47;2.25;;;1.70;;
26486;SDS011;14425;56.136;40.360;2022-09-29T10:05:43;2.20;;;2.00;;
26486;SDS011;14425;56.136;40.360;2022-09-29T10:10:44;2.67;;;1.60;;
26486;SDS011;14425;56.136;40.360;2022-09-29T10:13:10;3.95;;;2.10;;
26486;SDS011;14425;56.136;40.360;2022-09-29T10:18:04;1.90;;;1.63;;
26486;SDS011;14425;56.136;40.360;2022-09-29T10:20:37;1.73;;;1.55;;
26486;SDS011;14425;56.136;40.360;2022-09-29T10:23:18;3.88;;;2.30;;
26486;SDS011;14425;56.136;40.360;2022-09-29T10:25:52;2.45;;;1.48;;
26486;SDS011;14425;56.136;40.360;2022-09-29T10:28:22;2.53;;;2.00;;
26486;SDS011;14425;56.136;40.360;2022-09-29T10:30:49;2.25;;;2.05;;
26486;SDS011;14425;56.136;40.360;2022-09-29T10:33:16;1.77;;;1.67;;
26486;SDS011;14425;56.136;40.360;2022-09-29T10:35:46;2.05;;;1.90;;
26486;SDS011;14425;56.136;40.360;2022-09-29T10:38:17;2.42;;;1.88;;
26486;SDS011;14425;56.136;40.360;2022-09-29T10:41:06;3.80;;;1.80;;
26486;SDS011;14425;56.136;40.360;2022-09-29T10:45:58;2.22;;;1.80;;
26486;SDS011;14425;56.136;40.360;2022-09-29T10:48:24;2.90;;;1.63;;
26486;SDS011;14425;56.136;40.360;2022-09-29T10:50:52;7.40;;;2.17;;
26486;SDS011;14425;56.136;40.360;2022-09-29T10:55:56;2.00;;;1.50;;
26486;SDS011;14425;56.136;40.360;2022-09-29T10:58:32;3.47;;;2.15;;
26486;SDS011;14425;56.136;40.360;2022-09-29T11:03:38;4.45;;;2.28;;
26486;SDS011;14425;56.136;40.360;2022-09-29T11:06:11;3.38;;;2.70;;
26486;SDS011;14425;56.136;40.360;2022-09-29T11:11:51;2.03;;;1.75;;
26486;SDS011;14425;56.136;40.360;2022-09-29T11:14:26;2.42;;;2.22;;
26486;SDS011;14425;56.136;40.360;2022-09-29T11:16:55;1.80;;;1.70;;
26486;SDS011;14425;56.136;40.360;2022-09-29T11:19:23;2.75;;;1.95;;
26486;SDS011;14425;56.136;40.360;2022-09-29T11:21:56;2.85;;;2.53;;
26486;SDS011;14425;56.136;40.360;2022-09-29T11:24:47;2.78;;;2.20;;
26486;SDS011;14425;56.136;40.360;2022-09-29T11:43:15;5.32;;;2.47;;
26486;SDS011;14425;56.136;40.360;2022-09-29T11:48:40;2.47;;;2.13;;
26486;SDS011;14425;56.136;40.360;2022-09-29T12:11:29;3.35;;;2.50;;
26486;SDS011;14425;56.136;40.360;2022-09-29T12:14:09;2.90;;;1.95;;
26486;SDS011;14425;56.136;40.360;2022-09-29T12:16:45;6.90;;;2.70;;
26486;SDS011;14425;56.136;40.360;2022-09-29T12:19:18;3.72;;;2.50;;
26486;SDS011;14425;56.136;40.360;2022-09-29T12:21:49;2.25;;;2.00;;
26486;SDS011;14425;56.136;40.360;2022-09-29T12:26:53;2.17;;;1.92;;
26486;SDS011;14425;56.136;40.360;2022-09-29T12:29:32;3.00;;;2.30;;
26486;SDS011;14425;56.136;40.360;2022-09-29T12:32:03;2.40;;;2.20;;
26486;SDS011;14425;56.136;40.360;2022-09-29T12:37:47;2.63;;;1.98;;
26486;SDS011;14425;56.136;40.360;2022-09-29T12:40:29;2.15;;;1.75;;
26486;SDS011;14425;56.136;40.360;2022-09-29T12:43:22;3.75;;;2.13;;
26486;SDS011;14425;56.136;40.360;2022-09-29T12:45:53;2.08;;;1.83;;
26486;SDS011;14425;56.136;40.360;2022-09-29T12:48:26;2.47;;;1.90;;
26486;SDS011;14425;56.136;40.360;2022-09-29T12:50:56;2.10;;;1.90;;
26486;SDS011;14425;56.136;40.360;2022-09-29T12:53:50;2.80;;;1.65;;
26486;SDS011;14425;56.136;40.360;2022-09-29T12:57:10;3.42;;;2.25;;
26486;SDS011;14425;56.136;40.360;2022-09-29T13:02:04;3.67;;;2.05;;
26486;SDS011;14425;56.136;40.360;2022-09-29T13:05:01;3.13;;;2.42;;
26486;SDS011;14425;56.136;40.360;2022-09-29T13:27:34;2.70;;;2.03;;
26486;SDS011;14425;56.136;40.360;2022-09-29T13:30:12;2.05;;;1.55;;
26486;SDS011;14425;56.136;40.360;2022-09-29T13:35:21;7.05;;;1.90;;
26486;SDS011;14425;56.136;40.360;2022-09-29T13:40:35;2.15;;;1.67;;
26486;SDS011;14425;56.136;40.360;2022-09-29T13:43:01;2.88;;;2.42;;
26486;SDS011;14425;56.136;40.360;2022-09-29T13:48:49;1.98;;;1.77;;
26486;SDS011;14425;56.136;40.360;2022-09-29T13:50:56;7.00;;;2.00;;
26486;SDS011;14425;56.136;40.360;2022-09-29T13:55:55;1.83;;;1.73;;
26486;SDS011;14425;56.136;40.360;2022-09-29T13:58:35;4.72;;;2.90;;
26486;SDS011;14425;56.136;40.360;2022-09-29T14:01:42;3.08;;;2.67;;
26486;SDS011;14425;56.136;40.360;2022-09-29T14:07:00;2.78;;;2.30;;
26486;SDS011;14425;56.136;40.360;2022-09-29T14:09:28;3.70;;;2.33;;
26486;SDS011;14425;56.136;40.360;2022-09-29T14:11:58;3.05;;;2.13;;
26486;SDS011;14425;56.136;40.360;2022-09-29T14:14:29;3.53;;;2.63;;
26486;SDS011;14425;56.136;40.360;2022-09-29T14:19:52;2.88;;;2.55;;
26486;SDS011;14425;56.136;40.360;2022-09-29T14:27:32;3.63;;;2.95;;
26486;SDS011;14425;56.136;40.360;2022-09-29T14:32:46;2.05;;;1.83;;
26486;SDS011;14425;56.136;40.360;2022-09-29T14:35:14;3.85;;;2.03;;
26486;SDS011;14425;56.136;40.360;2022-09-29T14:37:49;3.45;;;2.47;;
26486;SDS011;14425;56.136;40.360;2022-09-29T14:40:23;4.70;;;2.30;;
26486;SDS011;14425;56.136;40.360;2022-09-29T14:43:11;4.25;;;2.25;;
26486;SDS011;14425;56.136;40.360;2022-09-29T14:45:51;4.72;;;2.75;;
26486;SDS011;14425;56.136;40.360;2022-09-29T14:48:50;5.78;;;2.60;;
26486;SDS011;14425;56.136;40.360;2022-09-29T14:52:40;4.72;;;3.00;;
26486;SDS011;14425;56.136;40.360;2022-09-29T15:01:14;3.90;;;2.80;;
26486;SDS011;14425;56.136;40.360;2022-09-29T15:03:26;4.80;;;3.03;;
26486;SDS011;14425;56.136;40.360;2022-09-29T15:06:10;5.88;;;2.67;;
26486;SDS011;14425;56.136;40.360;2022-09-29T15:08:54;4.80;;;4.18;;
26486;SDS011;14425;56.136;40.360;2022-09-29T15:11:34;3.47;;;3.17;;
26486;SDS011;14425;56.136;40.360;2022-09-29T15:22:43;8.40;;;4.05;;
26486;SDS011;14425;56.136;40.360;2022-09-29T15:30:30;5.75;;;4.68;;
26486;SDS011;14425;56.136;40.360;2022-09-29T15:35:32;8.30;;;4.65;;
26486;SDS011;14425;56.136;40.360;2022-09-29T15:40:34;7.65;;;4.38;;
26486;SDS011;14425;56.136;40.360;2022-09-29T15:49:21;3.85;;;3.20;;
26486;SDS011;14425;56.136;40.360;2022-09-29T15:54:23;4.40;;;3.50;;
26486;SDS011;14425;56.136;40.360;2022-09-29T15:57:02;8.70;;;3.53;;
26486;SDS011;14425;56.136;40.360;2022-09-29T15:59:51;5.78;;;3.42;;
26486;SDS011;14425;56.136;40.360;2022-09-29T16:05:04;4.38;;;3.15;;
26486;SDS011;14425;56.136;40.360;2022-09-29T16:07:37;5.15;;;3.08;;
26486;SDS011;14425;56.136;40.360;2022-09-29T16:10:15;5.03;;;2.85;;
26486;SDS011;14425;56.136;40.360;2022-09-29T16:12:51;4.07;;;2.85;;
26486;SDS011;14425;56.136;40.360;2022-09-29T16:15:43;5.93;;;3.00;;
26486;SDS011;14425;56.136;40.360;2022-09-29T16:20:58;3.45;;;2.92;;
26486;SDS011;14425;56.136;40.360;2022-09-29T16:23:37;3.67;;;2.47;;
26486;SDS011;14425;56.136;40.360;2022-09-29T16:26:18;3.35;;;2.45;;
26486;SDS011;14425;56.136;40.360;2022-09-29T16:31:41;4.75;;;3.33;;
26486;SDS011;14425;56.136;40.360;2022-09-29T16:37:01;3.60;;;2.80;;
26486;SDS011;14425;56.136;40.360;2022-09-29T16:39:38;6.80;;;2.97;;
26486;SDS011;14425;56.136;40.360;2022-09-29T16:42:13;4.05;;;2.78;;
26486;SDS011;14425;56.136;40.360;2022-09-29T16:44:43;6.55;;;3.50;;
26486;SDS011;14425;56.136;40.360;2022-09-29T16:47:23;3.38;;;2.25;;
26486;SDS011;14425;56.136;40.360;2022-09-29T16:49:55;3.65;;;2.42;;
26486;SDS011;14425;56.136;40.360;2022-09-29T16:52:24;4.97;;;3.90;;
26486;SDS011;14425;56.136;40.360;2022-09-29T16:54:53;3.70;;;3.00;;
26486;SDS011;14425;56.136;40.360;2022-09-29T17:00:40;3.58;;;2.30;;
26486;SDS011;14425;56.136;40.360;2022-09-29T17:03:06;4.15;;;3.63;;
26486;SDS011;14425;56.136;40.360;2022-09-29T17:05:33;4.10;;;3.13;;
26486;SDS011;14425;56.136;40.360;2022-09-29T17:08:03;2.63;;;2.35;;
26486;SDS011;14425;56.136;40.360;2022-09-29T17:10:31;2.50;;;2.30;;
26486;SDS011;14425;56.136;40.360;2022-09-29T17:12:57;4.53;;;3.30;;
26486;SDS011;14425;56.136;40.360;2022-09-29T17:15:23;3.55;;;2.67;;
26486;SDS011;14425;56.136;40.360;2022-09-29T17:20:21;9.13;;;2.88;;
26486;SDS011;14425;56.136;40.360;2022-09-29T17:22:54;3.67;;;3.03;;
26486;SDS011;14425;56.136;40.360;2022-09-29T17:25:21;5.47;;;2.42;;
26486;SDS011;14425;56.136;40.360;2022-09-29T17:27:47;7.53;;;2.90;;
26486;SDS011;14425;56.136;40.360;2022-09-29T17:30:31;2.78;;;2.25;;
26486;SDS011;14425;56.136;40.360;2022-09-29T17:32:58;2.90;;;2.30;;
26486;SDS011;14425;56.136;40.360;2022-09-29T17:35:25;6.75;;;3.20;;
26486;SDS011;14425;56.136;40.360;2022-09-29T17:38:11;3.80;;;3.03;;
26486;SDS011;14425;56.136;40.360;2022-09-29T17:43:30;6.03;;;3.10;;
26486;SDS011;14425;56.136;40.360;2022-09-29T17:45:57;4.53;;;2.80;;
26486;SDS011;14425;56.136;40.360;2022-09-29T17:48:27;4.80;;;3.58;;
26486;SDS011;14425;56.136;40.360;2022-09-29T17:50:54;3.50;;;3.20;;
26486;SDS011;14425;56.136;40.360;2022-09-29T17:53:22;3.60;;;2.78;;
26486;SDS011;14425;56.136;40.360;2022-09-29T17:55:51;3.85;;;2.65;;
26486;SDS011;14425;56.136;40.360;2022-09-29T17:58:18;5.88;;;3.97;;
26486;SDS011;14425;56.136;40.360;2022-09-29T18:00:46;5.53;;;3.60;;
26486;SDS011;14425;56.136;40.360;2022-09-29T18:03:14;2.97;;;2.58;;
26486;SDS011;14425;56.136;40.360;2022-09-29T18:05:42;6.07;;;4.20;;
26486;SDS011;14425;56.136;40.360;2022-09-29T18:08:12;6.97;;;3.50;;
26486;SDS011;14425;56.136;40.360;2022-09-29T18:10:41;4.07;;;3.00;;
26486;SDS011;14425;56.136;40.360;2022-09-29T18:13:15;8.55;;;3.28;;
26486;SDS011;14425;56.136;40.360;2022-09-29T18:15:41;5.30;;;3.60;;
26486;SDS011;14425;56.136;40.360;2022-09-29T18:18:09;9.63;;;4.40;;
26486;SDS011;14425;56.136;40.360;2022-09-29T18:20:40;9.02;;;4.75;;
26486;SDS011;14425;56.136;40.360;2022-09-29T18:23:08;9.93;;;5.50;;
26486;SDS011;14425;56.136;40.360;2022-09-29T18:25:34;5.72;;;3.58;;
26486;SDS011;14425;56.136;40.360;2022-09-29T18:28:00;11.07;;;5.65;;
26486;SDS011;14425;56.136;40.360;2022-09-29T18:30:32;6.15;;;4.60;;
26486;SDS011;14425;56.136;40.360;2022-09-29T18:33:05;10.63;;;5.55;;
26486;SDS011;14425;56.136;40.360;2022-09-29T18:35:37;11.90;;;5.82;;
26486;SDS011;14425;56.136;40.360;2022-09-29T18:38:06;10.82;;;5.88;;